createdAt,value
2018-09-03T00:00:28.644Z,23.97
2018-09-03T00:02:56.994Z,22.13
2018-09-03T00:05:25.668Z,24.60
2018-09-03T00:07:53.956Z,22.07
2018-09-03T00:10:22.321Z,21.10
2018-09-03T00:12:50.609Z,22.80
2018-09-03T00:15:18.909Z,21.53
2018-09-03T00:17:47.230Z,21.70
2018-09-03T00:20:15.539Z,25.07
2018-09-03T00:22:43.804Z,21.33
2018-09-03T00:25:12.065Z,20.97
2018-09-03T00:27:40.337Z,22.67
2018-09-03T00:30:08.599Z,21.70
2018-09-03T00:32:42.201Z,21.20
2018-09-03T00:35:15.829Z,22.77
2018-09-03T00:37:49.709Z,22.93
2018-09-03T00:40:23.317Z,26.30
2018-09-03T00:42:56.892Z,24.80
2018-09-03T00:45:30.676Z,27.43
2018-09-03T00:47:58.981Z,27.40
2018-09-03T00:50:27.354Z,26.23
2018-09-03T00:52:55.619Z,24.47
2018-09-03T00:55:23.859Z,24.00
2018-09-03T00:57:52.207Z,20.47
2018-09-03T01:00:20.461Z,22.67
2018-09-03T01:02:49.370Z,21.57
2018-09-03T01:05:17.636Z,20.97
2018-09-03T01:07:45.959Z,21.30
2018-09-03T01:10:14.284Z,21.30
2018-09-03T01:12:42.513Z,23.87
2018-09-03T01:15:10.856Z,23.30
2018-09-03T01:17:39.291Z,24.37
2018-09-03T01:20:07.580Z,22.77
2018-09-03T01:22:35.910Z,21.80
2018-09-03T01:25:04.259Z,24.87
2018-09-03T01:27:32.586Z,25.23
2018-09-03T01:30:00.937Z,26.30
2018-09-03T01:32:29.239Z,24.80
2018-09-03T01:34:57.569Z,26.00
2018-09-03T01:37:25.856Z,25.23
2018-09-03T01:39:54.383Z,24.07
2018-09-03T01:42:22.716Z,24.20
2018-09-03T01:44:51.011Z,24.83
2018-09-03T01:47:19.279Z,26.80
2018-09-03T01:49:47.587Z,25.37
2018-09-03T01:52:15.856Z,24.50
2018-09-03T01:54:44.162Z,24.47
2018-09-03T01:57:12.430Z,24.17
2018-09-03T01:59:40.727Z,25.37
2018-09-03T02:02:09.082Z,24.90
2018-09-03T02:04:37.388Z,26.33
2018-09-03T02:07:05.774Z,26.13
2018-09-03T02:09:34.104Z,24.23
2018-09-03T02:12:02.410Z,23.37
2018-09-03T02:14:30.682Z,25.10
2018-09-03T02:16:59.013Z,26.67
2018-09-03T02:19:27.352Z,24.10
2018-09-03T02:21:55.602Z,25.33
2018-09-03T02:24:23.905Z,26.37
2018-09-03T02:26:52.274Z,25.90
2018-09-03T02:29:20.602Z,24.00
2018-09-03T02:31:48.880Z,24.80
2018-09-03T02:34:17.205Z,23.80
2018-09-03T02:36:45.457Z,23.57
2018-09-03T02:39:13.729Z,24.23
2018-09-03T02:41:42.081Z,21.90
2018-09-03T02:44:10.430Z,23.97
2018-09-03T02:46:38.673Z,22.80
2018-09-03T02:49:07.161Z,21.77
2018-09-03T02:51:35.410Z,22.07
2018-09-03T02:54:03.687Z,24.33
2018-09-03T02:56:31.954Z,24.67
2018-09-03T02:59:00.351Z,23.00
2018-09-03T03:01:28.644Z,23.40
2018-09-03T03:03:56.943Z,25.10
2018-09-03T03:06:25.259Z,23.87
2018-09-03T03:08:53.665Z,21.83
2018-09-03T03:11:21.987Z,22.50
2018-09-03T03:13:50.240Z,23.53
2018-09-03T03:16:18.611Z,21.90
2018-09-03T03:18:46.957Z,23.13
2018-09-03T03:21:15.219Z,22.17
2018-09-03T03:23:43.585Z,22.93
2018-09-03T03:26:11.859Z,22.80
2018-09-03T03:28:40.224Z,23.10
2018-09-03T03:31:08.468Z,22.13
2018-09-03T03:33:36.831Z,22.80
2018-09-03T03:36:06.060Z,22.40
2018-09-03T03:38:34.393Z,21.23
2018-09-03T03:41:02.664Z,21.63
2018-09-03T03:43:30.927Z,22.70
2018-09-03T03:45:59.149Z,23.40
2018-09-03T03:48:27.484Z,23.73
2018-09-03T03:50:55.747Z,22.57
2018-09-03T03:53:24.074Z,23.30
2018-09-03T03:55:52.382Z,25.83
2018-09-03T03:58:20.711Z,22.87
2018-09-03T04:00:49.403Z,22.27
2018-09-03T04:03:17.713Z,24.23
2018-09-03T04:05:45.957Z,22.60
2018-09-03T04:08:14.264Z,21.17
2018-09-03T04:10:42.564Z,24.70
2018-09-03T04:13:10.884Z,24.00
2018-09-03T04:15:39.133Z,22.60
2018-09-03T04:18:07.505Z,22.23
2018-09-03T04:20:35.814Z,25.00
2018-09-03T04:23:04.191Z,26.00
2018-09-03T04:25:32.517Z,27.93
2018-09-03T04:28:00.872Z,30.10
2018-09-03T04:30:29.134Z,29.47
2018-09-03T04:32:57.423Z,30.57
2018-09-03T04:35:25.747Z,32.20
2018-09-03T04:37:54.041Z,32.17
2018-09-03T04:40:22.381Z,26.57
2018-09-03T04:42:50.696Z,26.97
2018-09-03T04:45:18.963Z,28.90
2018-09-03T04:47:47.256Z,31.37
2018-09-03T04:50:15.609Z,30.80
2018-09-03T04:52:43.926Z,31.60
2018-09-03T04:55:12.248Z,31.27
2018-09-03T04:57:40.486Z,32.20
2018-09-03T05:00:08.856Z,31.60
2018-09-03T05:02:37.169Z,30.87
2018-09-03T05:05:05.558Z,31.43
2018-09-03T05:07:33.877Z,32.40
2018-09-03T05:10:02.148Z,27.60
2018-09-03T05:12:30.423Z,29.53
2018-09-03T05:14:58.727Z,29.83
2018-09-03T05:17:27.037Z,31.07
2018-09-03T05:19:55.400Z,30.97
2018-09-03T05:22:23.693Z,30.90
2018-09-03T05:24:51.979Z,31.37
2018-09-03T05:27:20.318Z,30.70
2018-09-03T05:29:48.703Z,31.97
2018-09-03T05:32:16.963Z,30.80
2018-09-03T05:34:45.460Z,30.80
2018-09-03T05:37:13.820Z,31.70
2018-09-03T05:39:42.075Z,32.73
2018-09-03T05:42:10.322Z,32.27
2018-09-03T05:44:38.590Z,34.67
2018-09-03T05:47:06.861Z,31.37
2018-09-03T05:49:35.449Z,30.23
2018-09-03T05:52:03.775Z,31.83
2018-09-03T05:54:32.093Z,30.37
2018-09-03T05:57:00.543Z,30.30
2018-09-03T05:59:28.968Z,29.17
2018-09-03T06:01:57.821Z,29.00
2018-09-03T06:04:26.165Z,29.50
2018-09-03T06:06:54.769Z,30.17
2018-09-03T06:09:23.053Z,27.97
2018-09-03T06:11:51.380Z,28.73
2018-09-03T06:14:19.710Z,30.80
2018-09-03T06:16:47.951Z,29.63
2018-09-03T06:19:16.233Z,27.20
2018-09-03T06:21:44.574Z,27.63
2018-09-03T06:24:12.909Z,27.20
2018-09-03T06:26:41.326Z,26.47
2018-09-03T06:29:09.604Z,27.17
2018-09-03T06:31:37.857Z,25.30
2018-09-03T06:34:06.196Z,27.77
2018-09-03T06:36:34.480Z,24.80
2018-09-03T06:39:02.880Z,25.13
2018-09-03T06:41:31.186Z,24.90
2018-09-03T06:43:59.533Z,27.40
2018-09-03T06:46:27.860Z,27.50
2018-09-03T06:48:56.191Z,25.63
2018-09-03T06:51:24.444Z,25.33
2018-09-03T06:53:52.746Z,24.43
2018-09-03T06:56:21.102Z,26.13
2018-09-03T06:58:49.395Z,25.27
2018-09-03T07:01:17.767Z,24.43
2018-09-03T07:03:46.060Z,25.67
2018-09-03T07:06:14.326Z,24.50
2018-09-03T07:08:42.642Z,23.47
2018-09-03T07:11:11.898Z,22.80
2018-09-03T07:13:40.140Z,22.97
2018-09-03T07:16:08.490Z,22.03
2018-09-03T07:18:36.947Z,24.00
2018-09-03T07:21:05.246Z,23.17
2018-09-03T07:23:33.732Z,19.70
2018-09-03T07:26:02.039Z,21.40
2018-09-03T07:28:30.423Z,21.40
2018-09-03T07:30:59.195Z,20.93
2018-09-03T07:33:27.608Z,21.03
2018-09-03T07:35:55.961Z,21.00
2018-09-03T07:38:24.734Z,21.27
2018-09-03T07:40:53.103Z,21.10
2018-09-03T07:43:21.410Z,21.90
2018-09-03T07:45:49.657Z,19.40
2018-09-03T07:48:17.977Z,21.20
2018-09-03T07:50:46.260Z,20.00
2018-09-03T07:53:14.589Z,19.07
2018-09-03T07:55:42.987Z,19.27
2018-09-03T07:58:11.283Z,18.47
2018-09-03T08:00:39.597Z,18.60
2018-09-03T08:03:07.835Z,19.30
2018-09-03T08:05:36.105Z,18.23
2018-09-03T08:08:04.318Z,18.60
2018-09-03T08:10:32.577Z,18.10
2018-09-03T08:13:00.933Z,19.07
2018-09-03T08:15:29.170Z,18.87
2018-09-03T08:17:57.469Z,17.67
2018-09-03T08:20:25.790Z,17.90
2018-09-03T08:22:54.053Z,16.40
2018-09-03T08:25:22.384Z,17.73
2018-09-03T08:27:50.640Z,17.20
2018-09-03T08:30:18.983Z,16.67
2018-09-03T08:32:47.332Z,16.17
2018-09-03T08:35:15.597Z,16.03
2018-09-03T08:37:43.980Z,17.03
2018-09-03T08:40:12.198Z,18.47
2018-09-03T08:42:40.561Z,16.50
2018-09-03T08:45:08.881Z,16.83
2018-09-03T08:47:37.159Z,16.60
2018-09-03T08:50:05.527Z,16.50
2018-09-03T08:52:33.801Z,15.63
2018-09-03T08:55:02.068Z,14.60
2018-09-03T08:57:30.430Z,14.50
2018-09-03T08:59:58.801Z,13.67
2018-09-03T09:02:27.122Z,15.47
2018-09-03T09:04:55.404Z,15.23
2018-09-03T09:07:23.702Z,15.90
2018-09-03T09:09:52.067Z,14.27
2018-09-03T09:12:20.417Z,14.77
2018-09-03T09:14:48.753Z,14.33
2018-09-03T09:17:17.039Z,17.00
2018-09-03T09:19:45.331Z,15.13
2018-09-03T09:22:13.638Z,14.60
2018-09-03T09:24:41.915Z,14.83
2018-09-03T09:27:10.246Z,16.00
2018-09-03T09:29:38.582Z,15.07
2018-09-03T09:32:06.917Z,14.80
2018-09-03T09:34:35.269Z,14.10
2018-09-03T09:37:03.512Z,14.70
2018-09-03T09:39:31.870Z,15.33
2018-09-03T09:42:00.178Z,14.83
2018-09-03T09:44:28.578Z,14.70
2018-09-03T09:46:56.937Z,13.90
2018-09-03T09:49:25.311Z,14.67
2018-09-03T09:51:53.543Z,14.40
2018-09-03T09:54:21.770Z,13.53
2018-09-03T09:56:50.119Z,13.90
2018-09-03T09:59:18.480Z,13.73
2018-09-03T10:01:46.743Z,13.80
2018-09-03T10:04:15.147Z,15.40
2018-09-03T10:06:43.379Z,13.93
2018-09-03T10:09:11.725Z,12.93
2018-09-03T10:11:40.009Z,11.77
2018-09-03T10:14:08.291Z,12.63
2018-09-03T10:16:36.601Z,13.30
2018-09-03T10:19:04.824Z,13.27
2018-09-03T10:21:33.125Z,11.40
2018-09-03T10:24:01.395Z,11.53
2018-09-03T10:26:29.776Z,12.77
2018-09-03T10:28:58.186Z,12.23
2018-09-03T10:31:26.536Z,12.50
2018-09-03T10:33:54.895Z,11.70
2018-09-03T10:36:23.247Z,11.07
2018-09-03T10:38:51.458Z,11.30
2018-09-03T10:41:19.827Z,10.87
2018-09-03T10:43:48.179Z,11.90
2018-09-03T10:46:16.638Z,10.83
2018-09-03T10:48:44.936Z,11.30
2018-09-03T10:51:13.266Z,11.00
2018-09-03T10:53:41.551Z,10.00
2018-09-03T10:56:09.878Z,10.93
2018-09-03T10:58:38.151Z,12.43
2018-09-03T11:01:06.502Z,11.87
2018-09-03T11:03:34.801Z,11.40
2018-09-03T11:06:03.039Z,11.97
2018-09-03T11:08:31.411Z,10.40
2018-09-03T11:10:59.731Z,11.30
2018-09-03T11:13:28.084Z,9.80
2018-09-03T11:15:56.400Z,9.10
2018-09-03T11:18:26.162Z,10.30
2018-09-03T11:20:54.463Z,10.23
2018-09-03T11:23:22.822Z,12.40
2018-09-03T11:25:51.089Z,9.67
2018-09-03T11:28:19.377Z,10.93
2018-09-03T11:30:47.741Z,10.53
2018-09-03T11:33:16.016Z,10.80
2018-09-03T11:35:44.355Z,11.17
2018-09-03T11:38:12.658Z,10.73
2018-09-03T11:40:40.978Z,10.87
2018-09-03T11:43:09.216Z,9.50
2018-09-03T11:45:37.575Z,11.47
2018-09-03T11:48:05.840Z,11.33
2018-09-03T11:50:34.103Z,10.97
2018-09-03T11:53:02.414Z,9.80
2018-09-03T11:55:30.798Z,10.50
2018-09-03T11:57:59.201Z,11.03
2018-09-03T12:00:30.758Z,10.07
2018-09-03T12:02:59.312Z,10.40
2018-09-03T12:05:28.325Z,10.30
2018-09-03T12:07:56.636Z,9.83
2018-09-03T12:10:25.069Z,10.37
2018-09-03T12:12:53.379Z,11.70
2018-09-03T12:15:26.927Z,10.57
2018-09-03T12:17:55.239Z,10.40
2018-09-03T12:20:23.598Z,10.30
2018-09-03T12:22:51.921Z,9.10
2018-09-03T12:25:20.252Z,8.67
2018-09-03T12:27:48.565Z,10.80
2018-09-03T12:30:16.804Z,9.30
2018-09-03T12:32:45.070Z,8.80
2018-09-03T12:35:13.395Z,9.07
2018-09-03T12:37:41.641Z,8.50
2018-09-03T12:40:09.937Z,9.90
2018-09-03T12:42:38.222Z,9.70
2018-09-03T12:45:06.578Z,9.50
2018-09-03T12:47:34.845Z,8.47
2018-09-03T12:50:03.224Z,8.83
2018-09-03T12:52:31.474Z,8.27
2018-09-03T12:54:59.866Z,8.40
2018-09-03T12:57:28.155Z,8.40
2018-09-03T13:00:05.147Z,8.23
2018-09-03T13:02:24.710Z,8.90
2018-09-03T13:04:53.153Z,7.90
2018-09-03T13:07:21.473Z,7.60
2018-09-03T13:09:49.736Z,7.80
2018-09-03T13:12:17.999Z,7.93
2018-09-03T13:14:46.302Z,7.87
2018-09-03T13:17:14.566Z,7.10
2018-09-03T13:19:42.870Z,7.60
2018-09-03T13:22:11.228Z,7.73
2018-09-03T13:24:39.509Z,7.50
2018-09-03T13:27:07.760Z,7.90
2018-09-03T13:29:35.984Z,8.10
2018-09-03T13:32:04.320Z,7.60
2018-09-03T13:34:32.629Z,7.60
2018-09-03T13:37:00.990Z,7.20
2018-09-03T13:39:29.360Z,7.20
2018-09-03T13:41:57.638Z,7.57
2018-09-03T13:44:25.973Z,7.40
2018-09-03T13:46:55.868Z,7.00
2018-09-03T13:49:24.262Z,7.57
2018-09-03T13:51:52.592Z,7.70
2018-09-03T13:54:20.812Z,8.23
2018-09-03T13:56:49.204Z,7.77
2018-09-03T13:59:17.493Z,9.20
2018-09-03T14:01:45.734Z,8.40
2018-09-03T14:04:14.027Z,7.53
2018-09-03T14:06:42.290Z,7.83
2018-09-03T14:09:10.554Z,7.60
2018-09-03T14:11:38.972Z,7.40
2018-09-03T14:14:07.238Z,7.03
2018-09-03T14:16:35.541Z,7.53
2018-09-03T14:19:03.968Z,7.47
2018-09-03T14:21:32.270Z,6.83
2018-09-03T14:24:00.614Z,7.23
2018-09-03T14:26:28.958Z,6.87
2018-09-03T14:28:57.243Z,7.37
2018-09-03T14:31:25.550Z,7.20
2018-09-03T14:33:54.257Z,7.27
2018-09-03T14:36:22.597Z,7.40
2018-09-03T14:38:50.905Z,7.30
2018-09-03T14:41:19.244Z,7.53
2018-09-03T14:43:47.553Z,6.50
2018-09-03T14:46:15.892Z,6.70
2018-09-03T14:48:44.254Z,7.10
2018-09-03T14:51:12.526Z,7.37
2018-09-03T14:53:40.998Z,7.10
2018-09-03T14:56:09.330Z,7.10
2018-09-03T14:58:37.724Z,7.37
2018-09-03T15:01:05.934Z,7.53
2018-09-03T15:03:34.415Z,6.97
2018-09-03T15:06:02.670Z,7.10
2018-09-03T15:08:31.025Z,7.00
2018-09-03T15:10:59.357Z,6.97
2018-09-03T15:13:27.667Z,7.57
2018-09-03T15:15:55.961Z,7.00
2018-09-03T15:18:24.284Z,7.40
2018-09-03T15:20:52.560Z,7.30
2018-09-03T15:23:20.919Z,7.70
2018-09-03T15:25:49.220Z,7.43
2018-09-03T15:28:17.489Z,7.33
2018-09-03T15:30:45.791Z,6.47
2018-09-03T15:33:14.032Z,7.07
2018-09-03T15:35:42.389Z,6.87
2018-09-03T15:38:10.866Z,7.23
2018-09-03T15:40:39.186Z,7.67
2018-09-03T15:43:07.467Z,7.30
2018-09-03T15:45:35.791Z,6.87
2018-09-03T15:48:04.076Z,6.93
2018-09-03T15:50:32.458Z,6.40
2018-09-03T15:53:00.738Z,6.77
2018-09-03T15:55:29.017Z,7.37
2018-09-03T15:57:57.609Z,7.67
2018-09-03T16:00:25.934Z,8.17
2018-09-03T16:02:54.314Z,7.43
2018-09-03T16:05:22.628Z,6.93
2018-09-03T16:07:50.912Z,8.13
2018-09-03T16:10:19.265Z,7.10
2018-09-03T16:12:47.572Z,7.03
2018-09-03T16:15:15.925Z,6.43
2018-09-03T16:17:44.226Z,7.10
2018-09-03T16:20:12.706Z,7.17
2018-09-03T16:22:41.018Z,6.73
2018-09-03T16:25:09.306Z,7.40
2018-09-03T16:27:37.645Z,6.80
2018-09-03T16:30:06.043Z,7.37
2018-09-03T16:32:34.458Z,6.73
2018-09-03T16:35:02.746Z,7.43
2018-09-03T16:37:31.083Z,6.57
2018-09-03T16:39:59.424Z,6.60
2018-09-03T16:42:27.798Z,6.50
2018-09-03T16:44:56.088Z,6.40
2018-09-03T16:47:25.179Z,6.83
2018-09-03T16:49:53.466Z,7.00
2018-09-03T16:52:21.760Z,6.70
2018-09-03T16:54:50.043Z,7.40
2018-09-03T16:57:18.335Z,6.80
2018-09-03T16:59:46.647Z,6.73
2018-09-03T17:02:14.979Z,6.00
2018-09-03T17:04:43.314Z,8.10
2018-09-03T17:07:11.770Z,6.97
2018-09-03T17:09:40.062Z,6.50
2018-09-03T17:12:08.366Z,7.40
2018-09-03T17:14:36.616Z,6.80
2018-09-03T17:17:04.968Z,6.83
2018-09-03T17:19:33.263Z,6.60
2018-09-03T17:22:01.540Z,7.00
2018-09-03T17:24:29.810Z,6.90
2018-09-03T17:26:58.028Z,6.43
2018-09-03T17:29:26.469Z,6.90
2018-09-03T17:31:54.698Z,7.60
2018-09-03T17:34:22.980Z,7.27
2018-09-03T17:36:51.392Z,7.17
2018-09-03T17:39:19.781Z,7.73
2018-09-03T17:41:48.050Z,6.37
2018-09-03T17:44:16.401Z,6.80
2018-09-03T17:46:44.692Z,6.50
2018-09-03T17:49:13.076Z,6.90
2018-09-03T17:51:41.425Z,7.70
2018-09-03T17:54:09.787Z,7.13
2018-09-03T17:56:38.058Z,7.60
2018-09-03T17:59:06.422Z,6.13
2018-09-03T18:01:34.799Z,6.27
2018-09-03T18:04:03.246Z,6.20
2018-09-03T18:06:31.628Z,6.90
2018-09-03T18:08:59.947Z,6.87
2018-09-03T18:11:28.224Z,7.27
2018-09-03T18:13:56.564Z,7.57
2018-09-03T18:16:24.950Z,7.07
2018-09-03T18:18:53.391Z,6.90
2018-09-03T18:21:21.652Z,7.53
2018-09-03T18:23:50.019Z,7.17
2018-09-03T18:26:18.378Z,7.40
2018-09-03T18:28:46.625Z,7.00
2018-09-03T18:31:14.940Z,8.07
2018-09-03T18:33:43.255Z,6.60
2018-09-03T18:36:11.597Z,7.10
2018-09-03T18:38:39.927Z,7.07
2018-09-03T18:41:08.225Z,6.90
2018-09-03T18:43:36.521Z,7.10
2018-09-03T18:46:04.762Z,7.10
2018-09-03T18:48:33.039Z,7.07
2018-09-03T18:51:01.330Z,7.83
2018-09-03T18:53:29.726Z,7.20
2018-09-03T18:55:57.984Z,6.83
2018-09-03T18:58:26.403Z,7.10
2018-09-03T19:00:54.691Z,7.87
2018-09-03T19:03:22.961Z,7.50
2018-09-03T19:05:51.312Z,7.40
2018-09-03T19:08:19.569Z,7.40
2018-09-03T19:10:47.882Z,7.80
2018-09-03T19:13:16.225Z,7.17
2018-09-03T19:15:44.517Z,7.80
2018-09-03T19:18:12.776Z,7.57
2018-09-03T19:20:41.071Z,6.77
2018-09-03T19:23:09.452Z,7.30
2018-09-03T19:25:37.736Z,7.83
2018-09-03T19:28:06.190Z,7.03
2018-09-03T19:30:34.457Z,7.00
2018-09-03T19:33:02.866Z,7.10
2018-09-03T19:35:31.182Z,7.23
2018-09-03T19:37:59.462Z,7.20
2018-09-03T19:40:27.874Z,6.40
2018-09-03T19:42:56.086Z,7.50
2018-09-03T19:45:24.436Z,7.70
2018-09-03T19:47:52.705Z,7.90
2018-09-03T19:50:21.000Z,7.47
2018-09-03T19:52:49.257Z,6.90
2018-09-03T19:55:17.556Z,6.60
2018-09-03T19:57:45.901Z,6.30
2018-09-03T20:00:14.213Z,7.20
2018-09-03T20:02:42.484Z,7.00
2018-09-03T20:05:10.747Z,7.90
2018-09-03T20:07:39.002Z,7.30
2018-09-03T20:10:07.699Z,6.90
2018-09-03T20:12:35.966Z,6.87
2018-09-03T20:15:04.440Z,7.93
2018-09-03T20:17:32.685Z,7.30
2018-09-03T20:20:01.103Z,7.80
2018-09-03T20:22:29.374Z,6.90
2018-09-03T20:24:57.609Z,7.17
2018-09-03T20:27:25.983Z,6.70
2018-09-03T20:29:54.274Z,7.40
2018-09-03T20:32:22.588Z,7.00
2018-09-03T20:34:50.890Z,7.83
2018-09-03T20:37:19.184Z,7.50
2018-09-03T20:39:47.467Z,7.30
2018-09-03T20:42:15.781Z,6.43
2018-09-03T20:44:44.120Z,7.00
2018-09-03T20:47:12.374Z,6.80
2018-09-03T20:49:40.661Z,7.70
2018-09-03T20:52:08.977Z,6.80
2018-09-03T20:54:37.309Z,7.03
2018-09-03T20:57:05.630Z,7.03
2018-09-03T20:59:33.937Z,6.40
2018-09-03T21:02:02.240Z,7.50
2018-09-03T21:04:30.467Z,7.83
2018-09-03T21:06:58.869Z,8.43
2018-09-03T21:09:27.096Z,7.87
2018-09-03T21:11:55.378Z,8.37
2018-09-03T21:14:23.789Z,7.40
2018-09-03T21:16:52.010Z,8.63
2018-09-03T21:19:20.310Z,8.30
2018-09-03T21:21:48.651Z,7.73
2018-09-03T21:24:16.947Z,8.40
2018-09-03T21:26:45.193Z,8.37
2018-09-03T21:29:13.521Z,8.70
2018-09-03T21:31:41.814Z,8.20
2018-09-03T21:34:10.186Z,7.80
2018-09-03T21:36:38.464Z,8.70
2018-09-03T21:39:06.873Z,8.30
2018-09-03T21:41:35.065Z,7.80
2018-09-03T21:44:03.363Z,8.20
2018-09-03T21:46:31.739Z,8.07
2018-09-03T21:49:00.122Z,7.97
2018-09-03T21:51:28.378Z,8.83
2018-09-03T21:53:56.664Z,7.80
2018-09-03T21:56:24.913Z,8.40
2018-09-03T21:58:53.224Z,8.43
2018-09-03T22:01:21.491Z,8.20
2018-09-03T22:03:49.797Z,7.90
2018-09-03T22:06:18.099Z,8.10
2018-09-03T22:08:46.471Z,8.47
2018-09-03T22:11:14.789Z,7.93
2018-09-03T22:13:43.071Z,8.33
2018-09-03T22:16:11.383Z,8.27
2018-09-03T22:18:40.548Z,7.80
2018-09-03T22:21:08.969Z,7.93
2018-09-03T22:23:38.131Z,6.83
2018-09-03T22:26:06.601Z,8.20
2018-09-03T22:28:35.206Z,7.40
2018-09-03T22:31:03.633Z,8.17
2018-09-03T22:33:31.911Z,6.90
2018-09-03T22:36:00.250Z,8.47
2018-09-03T22:38:28.551Z,7.97
2018-09-03T22:40:56.829Z,8.20
2018-09-03T22:43:25.078Z,7.63
2018-09-03T22:45:53.425Z,7.70
2018-09-03T22:48:21.682Z,8.17
2018-09-03T22:50:49.955Z,7.87
2018-09-03T22:53:18.237Z,8.27
2018-09-03T22:55:46.564Z,7.97
2018-09-03T22:58:14.831Z,8.40
2018-09-03T23:00:43.160Z,8.03
2018-09-03T23:03:11.451Z,8.20
2018-09-03T23:05:39.688Z,7.83
2018-09-03T23:08:07.996Z,9.33
2018-09-03T23:10:36.345Z,8.53
2018-09-03T23:13:04.595Z,8.50
2018-09-03T23:15:32.912Z,8.33
2018-09-03T23:18:01.306Z,8.20
2018-09-03T23:20:29.587Z,8.30
2018-09-03T23:22:57.960Z,8.00
2018-09-03T23:25:26.245Z,8.30
2018-09-03T23:27:54.592Z,8.27
2018-09-03T23:30:22.990Z,8.73
2018-09-03T23:32:51.241Z,8.80
2018-09-03T23:35:19.527Z,8.30
2018-09-03T23:37:47.760Z,7.83
2018-09-03T23:40:16.004Z,8.50
2018-09-03T23:42:44.319Z,9.03
2018-09-03T23:45:12.629Z,8.67
2018-09-03T23:47:40.958Z,8.40
2018-09-03T23:50:09.173Z,9.83
2018-09-03T23:52:37.462Z,9.90
2018-09-03T23:55:06.301Z,8.40
2018-09-03T23:57:34.608Z,9.47
